createdAt,value
2022-08-17T00:00:44.085Z,23.45
2022-08-17T00:03:10.740Z,23.80
2022-08-17T00:05:42.610Z,22.08
2022-08-17T00:08:11.371Z,23.00
2022-08-17T00:10:40.935Z,21.48
2022-08-17T00:13:11.509Z,21.33
2022-08-17T00:15:39.685Z,20.88
2022-08-17T00:19:02.000Z,22.30
2022-08-17T00:20:58.520Z,21.10
2022-08-17T00:23:27.806Z,22.90
2022-08-17T00:25:57.548Z,21.42
2022-08-17T00:28:25.817Z,21.63
2022-08-17T00:30:55.287Z,20.70
2022-08-17T00:33:27.494Z,22.25
2022-08-17T00:35:56.846Z,22.65
2022-08-17T00:38:26.654Z,22.15
2022-08-17T00:40:59.014Z,22.10
2022-08-17T00:43:32.124Z,21.35
2022-08-17T00:46:02.630Z,21.52
2022-08-17T00:48:32.066Z,22.23
2022-08-17T00:51:05.527Z,21.30
2022-08-17T00:53:36.719Z,22.42
2022-08-17T00:56:11.398Z,23.17
2022-08-17T00:58:39.950Z,21.45
2022-08-17T01:01:11.264Z,22.08
2022-08-17T01:03:41.015Z,21.52
2022-08-17T01:06:10.204Z,21.35
2022-08-17T01:08:40.551Z,21.83
2022-08-17T01:11:10.272Z,24.13
2022-08-17T01:13:41.836Z,21.57
2022-08-17T01:16:17.094Z,21.88
2022-08-17T01:18:47.878Z,21.00
2022-08-17T01:23:49.012Z,21.92
2022-08-17T01:26:17.790Z,23.30
2022-08-17T01:28:55.142Z,22.38
2022-08-17T01:31:28.877Z,22.67
2022-08-17T01:33:59.528Z,21.38
2022-08-17T01:36:30.593Z,22.70
2022-08-17T01:39:00.779Z,21.70
2022-08-17T01:41:30.284Z,21.75
2022-08-17T01:44:02.549Z,21.85
2022-08-17T01:46:33.713Z,22.02
2022-08-17T01:49:04.629Z,22.77
2022-08-17T01:51:33.551Z,22.80
2022-08-17T01:54:07.321Z,22.48
2022-08-17T01:56:37.976Z,22.98
2022-08-17T01:59:06.548Z,22.67
2022-08-17T02:01:35.687Z,21.98
2022-08-17T02:04:06.609Z,23.15
2022-08-17T02:06:44.981Z,22.13
2022-08-17T02:09:16.589Z,22.85
2022-08-17T02:11:46.433Z,21.52
2022-08-17T02:14:15.126Z,21.33
2022-08-17T02:16:43.827Z,24.13
2022-08-17T02:19:14.278Z,22.40
2022-08-17T02:21:45.486Z,22.70
2022-08-17T02:24:59.509Z,22.13
2022-08-17T02:27:07.869Z,22.45
2022-08-17T02:29:35.926Z,22.73
2022-08-17T02:32:05.072Z,22.20
2022-08-17T02:34:33.490Z,24.13
2022-08-17T02:37:01.661Z,24.38
2022-08-17T02:39:31.540Z,24.45
2022-08-17T02:42:02.949Z,23.45
2022-08-17T02:44:39.035Z,24.02
2022-08-17T02:47:09.175Z,23.48
2022-08-17T02:49:37.716Z,24.00
2022-08-17T02:52:08.161Z,23.98
2022-08-17T02:54:40.818Z,23.25
2022-08-17T02:57:11.258Z,22.67
2022-08-17T02:59:39.892Z,23.33
2022-08-17T03:02:09.697Z,23.58
2022-08-17T03:04:38.227Z,22.70
2022-08-17T03:07:06.872Z,22.88
2022-08-17T03:09:35.271Z,23.52
2022-08-17T03:12:11.120Z,22.63
2022-08-17T03:14:41.651Z,22.98
2022-08-17T03:19:45.371Z,22.80
2022-08-17T03:22:34.762Z,22.88
2022-08-17T03:25:01.836Z,22.65
2022-08-17T03:27:31.813Z,22.55
2022-08-17T03:29:59.998Z,23.33
2022-08-17T03:32:28.165Z,23.60
2022-08-17T03:35:00.284Z,26.63
2022-08-17T03:37:28.453Z,27.85
2022-08-17T03:39:56.748Z,27.67
2022-08-17T03:42:32.584Z,28.98
2022-08-17T03:45:04.562Z,28.98
2022-08-17T03:47:50.610Z,30.30
2022-08-17T03:50:37.526Z,30.13
2022-08-17T03:53:32.114Z,28.95
2022-08-17T03:56:18.599Z,27.38
2022-08-17T03:58:47.346Z,28.98
2022-08-17T04:01:17.949Z,29.23
2022-08-17T04:06:15.262Z,25.45
2022-08-17T04:08:43.425Z,27.42
2022-08-17T04:11:11.519Z,27.45
2022-08-17T04:13:39.595Z,27.08
2022-08-17T04:16:07.936Z,27.50
2022-08-17T04:18:37.315Z,28.95
2022-08-17T04:21:05.714Z,30.23
2022-08-17T04:23:36.572Z,29.30
2022-08-17T04:28:32.988Z,29.58
2022-08-17T04:31:01.155Z,32.15
2022-08-17T04:33:31.073Z,33.00
2022-08-17T04:36:02.745Z,32.65
2022-08-17T04:38:32.916Z,32.17
2022-08-17T04:41:19.095Z,32.92
2022-08-17T04:43:49.664Z,31.10
2022-08-17T04:46:21.181Z,32.70
2022-08-17T04:48:51.436Z,33.40
2022-08-17T04:51:22.440Z,31.50
2022-08-17T04:53:54.878Z,31.13
2022-08-17T04:56:25.099Z,32.42
2022-08-17T04:58:55.893Z,33.22
2022-08-17T05:03:54.233Z,32.50
2022-08-17T05:06:24.482Z,33.10
2022-08-17T05:08:52.640Z,33.15
2022-08-17T05:11:21.113Z,32.38
2022-08-17T05:13:50.721Z,34.40
2022-08-17T05:16:20.218Z,35.08
2022-08-17T05:18:48.544Z,36.08
2022-08-17T05:21:17.418Z,35.80
2022-08-17T05:23:50.349Z,34.60
2022-08-17T05:26:26.134Z,34.28
2022-08-17T05:28:59.517Z,33.15
2022-08-17T05:31:28.760Z,31.52
2022-08-17T05:33:57.130Z,32.83
2022-08-17T05:36:42.300Z,33.58
2022-08-17T05:39:16.523Z,34.15
2022-08-17T05:41:47.827Z,33.58
2022-08-17T05:44:16.223Z,35.47
2022-08-17T05:46:49.847Z,33.03
2022-08-17T05:49:23.231Z,34.22
2022-08-17T05:52:10.824Z,35.88
2022-08-17T05:54:56.252Z,36.13
2022-08-17T05:57:47.559Z,33.60
2022-08-17T06:00:30.614Z,34.80
2022-08-17T06:03:15.045Z,33.88
2022-08-17T06:06:05.339Z,34.50
2022-08-17T06:08:40.721Z,40.65
2022-08-17T06:11:21.291Z,41.05
2022-08-17T06:14:23.684Z,40.65
2022-08-17T06:19:32.447Z,38.08
2022-08-17T06:22:02.756Z,39.78
2022-08-17T06:24:37.268Z,40.20
2022-08-17T06:27:14.920Z,41.10
2022-08-17T06:29:50.516Z,39.63
2022-08-17T06:32:19.011Z,41.28
2022-08-17T06:34:48.132Z,40.65
2022-08-17T06:37:31.154Z,41.00
2022-08-17T06:40:15.361Z,40.53
2022-08-17T06:43:06.469Z,40.47
2022-08-17T06:45:39.819Z,40.80
2022-08-17T06:48:14.165Z,41.20
2022-08-17T06:50:48.289Z,42.13
2022-08-17T06:53:23.425Z,41.92
2022-08-17T06:55:59.971Z,41.78
2022-08-17T06:58:31.499Z,42.35
2022-08-17T07:01:07.140Z,40.33
2022-08-17T07:03:45.662Z,39.75
2022-08-17T07:06:18.340Z,38.78
2022-08-17T07:08:54.212Z,42.70
2022-08-17T07:11:28.611Z,41.40
2022-08-17T07:14:05.569Z,41.17
2022-08-17T07:16:39.771Z,41.88
2022-08-17T07:19:11.054Z,40.08
2022-08-17T07:21:55.576Z,38.80
2022-08-17T07:24:35.665Z,38.80
2022-08-17T07:27:10.589Z,39.58
2022-08-17T07:29:46.726Z,39.60
2022-08-17T07:32:19.473Z,38.33
2022-08-17T07:35:10.667Z,38.25
2022-08-17T07:37:41.089Z,37.63
2022-08-17T07:40:22.285Z,39.85
2022-08-17T07:43:23.197Z,40.38
2022-08-17T07:46:17.942Z,38.92
2022-08-17T07:48:49.766Z,37.08
2022-08-17T07:51:21.687Z,38.47
2022-08-17T07:53:50.191Z,36.78
2022-08-17T07:56:41.072Z,37.78
2022-08-17T07:59:15.592Z,38.20
2022-08-17T08:01:48.854Z,38.92
2022-08-17T08:07:27.533Z,39.58
2022-08-17T08:10:03.998Z,40.70
2022-08-17T08:12:35.146Z,42.10
2022-08-17T08:15:14.183Z,40.25
2022-08-17T08:17:57.572Z,41.00
2022-08-17T08:20:51.166Z,38.15
2022-08-17T08:23:36.226Z,38.30
2022-08-17T08:26:18.738Z,37.97
2022-08-17T08:28:54.699Z,37.20
2022-08-17T08:31:32.986Z,38.30
2022-08-17T08:34:58.787Z,36.42
2022-08-17T08:37:16.595Z,36.67
2022-08-17T08:39:57.093Z,34.83
2022-08-17T08:42:34.366Z,35.00
2022-08-17T08:45:09.396Z,36.97
2022-08-17T08:48:46.153Z,37.38
2022-08-17T08:51:13.878Z,33.50
2022-08-17T08:53:51.544Z,34.65
2022-08-17T08:56:27.843Z,33.50
2022-08-17T08:59:02.529Z,36.10
2022-08-17T09:01:38.361Z,34.30
2022-08-17T09:04:29.358Z,34.58
2022-08-17T09:07:12.845Z,32.80
2022-08-17T09:09:59.326Z,32.95
2022-08-17T09:12:37.487Z,31.90
2022-08-17T09:15:13.079Z,31.65
2022-08-17T09:17:59.395Z,35.03
2022-08-17T09:20:49.524Z,34.40
2022-08-17T09:23:35.576Z,32.05
2022-08-17T09:26:12.478Z,33.70
2022-08-17T09:28:45.894Z,35.72
2022-08-17T09:31:21.351Z,30.92
2022-08-17T09:33:51.301Z,29.13
2022-08-17T09:36:24.222Z,29.55
2022-08-17T09:39:01.463Z,29.40
2022-08-17T09:41:38.870Z,29.23
2022-08-17T09:44:27.110Z,30.80
2022-08-17T09:47:01.085Z,28.50
2022-08-17T09:49:34.665Z,29.80
2022-08-17T09:52:09.005Z,30.33
2022-08-17T09:54:41.405Z,27.98
2022-08-17T09:57:31.670Z,29.60
2022-08-17T10:00:18.840Z,30.10
2022-08-17T10:03:01.594Z,27.20
2022-08-17T10:05:38.576Z,25.77
2022-08-17T10:08:21.696Z,28.48
2022-08-17T10:11:07.001Z,27.25
2022-08-17T10:13:47.168Z,28.75
2022-08-17T10:16:30.881Z,27.67
2022-08-17T10:19:08.263Z,29.45
2022-08-17T10:22:00.815Z,29.75
2022-08-17T10:25:21.560Z,26.05
2022-08-17T10:27:48.854Z,27.33
2022-08-17T10:30:20.097Z,29.02
2022-08-17T10:32:55.116Z,28.08
2022-08-17T10:35:34.323Z,27.83
2022-08-17T10:38:45.957Z,26.63
2022-08-17T10:41:39.658Z,27.10
2022-08-17T10:44:39.217Z,25.02
2022-08-17T10:47:09.797Z,23.48
2022-08-17T10:49:44.305Z,22.83
2022-08-17T10:52:45.780Z,22.10
2022-08-17T10:55:15.900Z,21.30
2022-08-17T10:57:45.943Z,20.98
2022-08-17T11:01:03.975Z,19.45
2022-08-17T11:03:33.248Z,21.25
2022-08-17T11:06:12.789Z,19.77
2022-08-17T11:09:08.835Z,20.57
2022-08-17T11:11:58.712Z,21.27
2022-08-17T11:14:53.312Z,21.33
2022-08-17T11:17:43.443Z,20.70
2022-08-17T11:20:28.981Z,20.45
2022-08-17T11:23:25.920Z,20.50
2022-08-17T11:25:56.522Z,20.00
2022-08-17T11:28:28.173Z,18.73
2022-08-17T11:30:59.117Z,19.08
2022-08-17T11:33:56.094Z,16.52
2022-08-17T11:36:51.886Z,14.15
2022-08-17T11:39:39.434Z,13.70
2022-08-17T11:42:21.042Z,12.75
2022-08-17T11:44:55.877Z,12.63
2022-08-17T11:48:08.934Z,11.77
2022-08-17T11:51:05.025Z,11.85
2022-08-17T11:54:31.251Z,13.82
2022-08-17T11:56:52.973Z,12.70
2022-08-17T12:00:00.210Z,12.57
2022-08-17T12:02:47.526Z,13.25
2022-08-17T12:05:32.343Z,13.23
2022-08-17T12:08:16.038Z,12.25
2022-08-17T12:11:01.366Z,12.52
2022-08-17T12:13:39.363Z,12.93
2022-08-17T12:16:09.998Z,11.40
2022-08-17T12:18:42.069Z,10.95
2022-08-17T12:21:40.261Z,12.43
2022-08-17T12:24:20.055Z,11.70
2022-08-17T12:26:53.801Z,12.35
2022-08-17T12:29:35.848Z,11.98
2022-08-17T12:32:14.092Z,12.63
2022-08-17T12:34:44.702Z,12.05
2022-08-17T12:37:16.970Z,12.00
2022-08-17T12:39:53.508Z,10.93
2022-08-17T12:42:34.764Z,11.77
2022-08-17T12:45:02.896Z,12.40
2022-08-17T12:47:31.914Z,14.15
2022-08-17T12:50:08.438Z,12.25
2022-08-17T12:53:01.755Z,11.98
2022-08-17T12:55:38.905Z,13.68
2022-08-17T12:58:14.421Z,13.57
2022-08-17T13:00:49.986Z,14.50
2022-08-17T13:03:21.019Z,16.17
2022-08-17T13:06:00.725Z,17.23
2022-08-17T13:08:35.289Z,16.42
2022-08-17T13:11:08.494Z,17.33
2022-08-17T13:13:39.487Z,16.95
2022-08-17T13:16:16.693Z,16.20
2022-08-17T13:18:48.065Z,17.52
2022-08-17T13:21:27.818Z,18.40
2022-08-17T13:24:02.704Z,17.63
2022-08-17T13:26:36.188Z,16.92
2022-08-17T13:29:07.660Z,16.55
2022-08-17T13:31:52.367Z,16.42
2022-08-17T13:35:12.090Z,16.00
2022-08-17T13:37:32.532Z,16.67
2022-08-17T13:40:31.631Z,16.27
2022-08-17T13:43:03.346Z,17.75
2022-08-17T13:45:50.328Z,17.25
2022-08-17T13:48:25.828Z,17.90
2022-08-17T13:51:25.149Z,17.83
2022-08-17T13:54:24.461Z,15.57
2022-08-17T13:57:05.105Z,17.35
2022-08-17T13:59:55.053Z,17.38
2022-08-17T14:04:59.063Z,14.00
2022-08-17T14:07:32.134Z,12.30
2022-08-17T14:10:03.402Z,10.93
2022-08-17T14:12:34.205Z,8.35
2022-08-17T14:15:04.695Z,7.97
2022-08-17T14:20:09.535Z,7.70
2022-08-17T14:22:41.607Z,8.05
2022-08-17T14:25:10.917Z,8.07
2022-08-17T14:27:51.736Z,9.02
2022-08-17T14:30:25.296Z,8.82
2022-08-17T14:32:58.074Z,10.70
2022-08-17T14:35:28.043Z,10.82
2022-08-17T14:37:57.129Z,9.60
2022-08-17T14:40:26.221Z,9.80
2022-08-17T14:42:57.924Z,8.13
2022-08-17T14:45:32.852Z,8.27
2022-08-17T14:48:05.748Z,8.15
2022-08-17T14:50:35.713Z,8.27
2022-08-17T14:53:06.173Z,7.72
2022-08-17T14:55:34.556Z,11.32
2022-08-17T14:58:04.061Z,11.50
2022-08-17T15:00:34.822Z,11.60
2022-08-17T15:03:03.393Z,9.93
2022-08-17T15:05:35.047Z,9.70
2022-08-17T15:08:04.669Z,9.60
2022-08-17T15:10:33.806Z,10.60
2022-08-17T15:13:02.066Z,12.48
2022-08-17T15:15:31.046Z,12.20
2022-08-17T15:18:01.120Z,13.50
2022-08-17T15:20:31.037Z,13.50
2022-08-17T15:22:59.877Z,15.13
2022-08-17T15:25:29.828Z,15.25
2022-08-17T15:27:58.174Z,16.73
2022-08-17T15:30:27.229Z,15.77
2022-08-17T15:32:57.517Z,16.48
2022-08-17T15:35:29.449Z,16.10
2022-08-17T15:38:06.159Z,17.75
2022-08-17T15:40:40.339Z,15.90
2022-08-17T15:43:11.381Z,17.63
2022-08-17T15:45:40.569Z,16.77
2022-08-17T15:48:09.257Z,15.10
2022-08-17T15:50:38.668Z,16.90
2022-08-17T15:53:06.831Z,12.30
2022-08-17T15:55:35.307Z,10.70
2022-08-17T15:58:03.455Z,11.43
2022-08-17T16:00:36.396Z,8.73
2022-08-17T16:03:58.108Z,5.65
2022-08-17T16:06:10.074Z,6.95
2022-08-17T16:11:08.367Z,6.63
2022-08-17T16:13:36.436Z,7.22
2022-08-17T16:16:05.098Z,8.93
2022-08-17T16:18:33.232Z,8.40
2022-08-17T16:21:23.605Z,7.63
2022-08-17T16:23:56.214Z,7.50
2022-08-17T16:26:24.448Z,7.85
2022-08-17T16:28:53.411Z,7.57
2022-08-17T16:31:21.672Z,8.32
2022-08-17T16:34:16.731Z,7.32
2022-08-17T16:36:39.363Z,8.27
2022-08-17T16:39:09.046Z,7.57
2022-08-17T16:41:46.624Z,7.07
2022-08-17T16:44:16.986Z,8.27
2022-08-17T16:46:45.887Z,8.02
2022-08-17T16:49:29.648Z,8.68
2022-08-17T16:52:06.365Z,8.15
2022-08-17T16:54:37.995Z,8.55
2022-08-17T16:57:06.436Z,8.45
2022-08-17T16:59:40.708Z,8.63
2022-08-17T17:02:11.336Z,8.45
2022-08-17T17:04:46.719Z,9.85
2022-08-17T17:07:33.944Z,9.57
2022-08-17T17:10:08.934Z,9.80
2022-08-17T17:13:01.546Z,9.65
2022-08-17T17:15:40.422Z,10.15
2022-08-17T17:18:14.048Z,10.20
2022-08-17T17:20:49.297Z,9.88
2022-08-17T17:23:31.309Z,9.80
2022-08-17T17:26:15.242Z,10.27
2022-08-17T17:28:57.041Z,11.30
2022-08-17T17:31:28.803Z,10.10
2022-08-17T17:34:00.544Z,11.30
2022-08-17T17:36:35.707Z,12.00
2022-08-17T17:39:07.718Z,12.07
2022-08-17T17:41:44.459Z,11.82
2022-08-17T17:44:17.996Z,11.77
2022-08-17T17:46:52.554Z,11.63
2022-08-17T17:49:21.145Z,12.27
2022-08-17T17:52:11.161Z,12.52
2022-08-17T17:54:54.091Z,12.48
2022-08-17T17:57:36.978Z,12.57
2022-08-17T18:00:12.616Z,12.07
2022-08-17T18:02:52.866Z,12.98
2022-08-17T18:05:48.447Z,12.60
2022-08-17T18:08:34.348Z,12.60
2022-08-17T18:11:24.203Z,13.20
2022-08-17T18:14:14.897Z,13.30
2022-08-17T18:16:43.292Z,12.68
2022-08-17T18:19:14.211Z,13.43
2022-08-17T18:21:46.020Z,13.40
2022-08-17T18:24:14.816Z,14.18
2022-08-17T18:26:48.034Z,14.88
2022-08-17T18:29:26.361Z,13.98
2022-08-17T18:32:22.882Z,13.85
2022-08-17T18:34:53.539Z,14.18
2022-08-17T18:39:59.989Z,14.02
2022-08-17T18:42:30.120Z,14.95
2022-08-17T18:44:59.667Z,13.50
2022-08-17T18:47:29.541Z,15.02
2022-08-17T18:50:00.586Z,14.07
2022-08-17T18:52:31.187Z,14.45
2022-08-17T18:55:04.097Z,15.98
2022-08-17T18:57:35.470Z,16.15
2022-08-17T19:00:12.685Z,15.02
2022-08-17T19:02:52.103Z,14.60
2022-08-17T19:05:31.300Z,16.00
2022-08-17T19:08:19.972Z,16.27
2022-08-17T19:10:52.455Z,14.90
2022-08-17T19:13:25.845Z,15.82
2022-08-17T19:16:13.050Z,15.13
2022-08-17T19:18:47.923Z,14.60
2022-08-17T19:21:19.951Z,14.60
2022-08-17T19:23:54.995Z,13.57
2022-08-17T19:26:55.382Z,13.70
2022-08-17T19:29:19.488Z,12.55
2022-08-17T19:31:53.096Z,13.35
2022-08-17T19:37:10.739Z,12.43
2022-08-17T19:39:46.644Z,11.32
2022-08-17T19:42:28.544Z,11.63
2022-08-17T19:45:05.467Z,11.43
2022-08-17T19:47:54.778Z,11.80
2022-08-17T19:50:53.252Z,12.20
2022-08-17T19:54:01.717Z,12.43
2022-08-17T19:56:48.599Z,12.77
2022-08-17T19:59:28.311Z,12.27
2022-08-17T20:02:20.219Z,12.45
2022-08-17T20:04:53.081Z,13.23
2022-08-17T20:07:27.502Z,12.60
2022-08-17T20:10:03.456Z,14.15
2022-08-17T20:12:36.184Z,12.82
2022-08-17T20:15:10.847Z,11.88
2022-08-17T20:17:43.334Z,13.10
2022-08-17T20:20:24.006Z,13.27
2022-08-17T20:25:32.789Z,12.80
2022-08-17T20:28:07.241Z,12.43
2022-08-17T20:30:39.109Z,12.45
2022-08-17T20:33:13.104Z,13.38
2022-08-17T20:36:02.951Z,13.65
2022-08-17T20:38:44.027Z,13.95
2022-08-17T20:41:15.839Z,14.73
2022-08-17T20:43:52.212Z,15.23
2022-08-17T20:46:30.045Z,14.15
2022-08-17T20:49:14.722Z,15.43
2022-08-17T20:52:01.707Z,14.30
2022-08-17T20:54:47.841Z,14.60
2022-08-17T20:57:45.677Z,14.40
2022-08-17T21:00:34.988Z,15.80
2022-08-17T21:03:51.329Z,13.82
2022-08-17T21:06:23.404Z,13.55
2022-08-17T21:08:57.964Z,12.73
2022-08-17T21:12:04.303Z,12.18
2022-08-17T21:14:58.160Z,11.38
2022-08-17T21:17:44.645Z,11.32
2022-08-17T21:20:32.264Z,12.40
2022-08-17T21:23:19.286Z,11.73
2022-08-17T21:26:13.703Z,11.68
2022-08-17T21:29:01.239Z,10.35
2022-08-17T21:31:34.619Z,9.57
2022-08-17T21:34:32.944Z,9.95
2022-08-17T21:37:28.651Z,10.07
2022-08-17T21:40:00.322Z,10.07
2022-08-17T21:42:32.560Z,10.38
2022-08-17T21:45:09.153Z,10.85
2022-08-17T21:47:43.597Z,10.40
2022-08-17T21:50:19.453Z,10.43
2022-08-17T21:52:48.946Z,10.63
2022-08-17T21:55:24.956Z,10.15
2022-08-17T21:58:13.807Z,10.65
2022-08-17T22:00:44.345Z,10.63
2022-08-17T22:03:27.797Z,10.00
2022-08-17T22:05:56.148Z,10.88
2022-08-17T22:08:25.761Z,10.82
2022-08-17T22:11:02.928Z,9.85
2022-08-17T22:13:32.844Z,10.65
2022-08-17T22:16:15.742Z,11.50
2022-08-17T22:18:58.143Z,10.00
2022-08-17T22:21:27.679Z,10.77
2022-08-17T22:24:06.216Z,10.73
2022-08-17T22:27:08.086Z,11.00
2022-08-17T22:29:57.034Z,10.27
2022-08-17T22:32:48.484Z,9.20
2022-08-17T22:35:35.554Z,9.10
2022-08-17T22:38:26.462Z,9.55
2022-08-17T22:40:58.435Z,9.23
2022-08-17T22:43:29.829Z,9.95
2022-08-17T22:46:01.597Z,8.93
2022-08-17T22:48:31.480Z,9.00
2022-08-17T22:51:12.700Z,8.80
2022-08-17T22:54:05.302Z,8.15
2022-08-17T22:56:51.517Z,8.10
2022-08-17T22:59:36.897Z,7.90
2022-08-17T23:02:20.789Z,7.78
2022-08-17T23:04:52.578Z,7.18
2022-08-17T23:07:21.204Z,7.78
2022-08-17T23:09:49.345Z,7.53
2022-08-17T23:12:22.811Z,7.55
2022-08-17T23:14:57.193Z,7.30
2022-08-17T23:17:27.684Z,7.43
2022-08-17T23:19:57.080Z,7.50
2022-08-17T23:22:26.068Z,9.30
2022-08-17T23:24:54.607Z,7.03
2022-08-17T23:27:23.252Z,6.70
2022-08-17T23:29:51.488Z,6.82
2022-08-17T23:32:19.863Z,8.20
2022-08-17T23:34:51.801Z,8.23
2022-08-17T23:37:20.947Z,7.40
2022-08-17T23:39:49.040Z,7.82
2022-08-17T23:42:24.513Z,7.25
2022-08-17T23:44:52.764Z,7.10
2022-08-17T23:47:21.420Z,7.15
2022-08-17T23:49:54.228Z,7.13
2022-08-17T23:52:24.286Z,6.65
2022-08-17T23:54:53.446Z,7.13
2022-08-17T23:57:33.432Z,7.03
